Terminal Aerodrome Forecast
Issued by NWS Amarillo, TX

Home | Current Version | Previous Version | Text Only | Print | Product List | Glossary On
Versions: 1 2 3 4 5 6 7 8 9 10 11 12 13
247
FTUS44 KAMA 082343
TAFAMA
TAF
KAMA 082343Z 0900/0924 32008KT P6SM FEW300
     FM090500 25008KT P6SM FEW300
     FM091700 33012KT P6SM FEW300=

USA.gov is the U.S. government's official web portal to all federal, state and local government web resources and services.